sensor_id;sensor_type;location;lat;lon;timestamp;P1;durP1;ratioP1;P2;durP2;ratioP2
61527;SDS011;47395;42.032;-8.634;2022-09-04T00:03:57;12.30;;;4.03;;
61527;SDS011;47395;42.032;-8.634;2022-09-04T00:06:12;13.57;;;4.63;;
61527;SDS011;47395;42.032;-8.634;2022-09-04T00:08:23;10.85;;;4.55;;
61527;SDS011;47395;42.032;-8.634;2022-09-04T00:10:48;14.40;;;4.60;;
61527;SDS011;47395;42.032;-8.634;2022-09-04T00:13:05;14.40;;;4.53;;
61527;SDS011;47395;42.032;-8.634;2022-09-04T00:15:16;10.15;;;3.97;;
61527;SDS011;47395;42.032;-8.634;2022-09-04T00:18:09;14.80;;;3.88;;
61527;SDS011;47395;42.032;-8.634;2022-09-04T00:19:54;11.80;;;3.92;;
61527;SDS011;47395;42.032;-8.634;2022-09-04T00:22:01;12.85;;;4.00;;
61527;SDS011;47395;42.032;-8.634;2022-09-04T00:24:19;11.60;;;3.47;;
61527;SDS011;47395;42.032;-8.634;2022-09-04T00:29:11;12.10;;;4.05;;
61527;SDS011;47395;42.032;-8.634;2022-09-04T00:31:33;7.13;;;3.42;;
61527;SDS011;47395;42.032;-8.634;2022-09-04T00:36:27;11.73;;;3.15;;
61527;SDS011;47395;42.032;-8.634;2022-09-04T00:40:56;14.70;;;3.15;;
61527;SDS011;47395;42.032;-8.634;2022-09-04T00:50:59;14.52;;;3.47;;
61527;SDS011;47395;42.032;-8.634;2022-09-04T00:58:31;8.50;;;2.83;;
61527;SDS011;47395;42.032;-8.634;2022-09-04T01:01:00;9.48;;;3.28;;
61527;SDS011;47395;42.032;-8.634;2022-09-04T01:06:06;11.82;;;3.85;;
61527;SDS011;47395;42.032;-8.634;2022-09-04T01:10:40;11.00;;;3.38;;
61527;SDS011;47395;42.032;-8.634;2022-09-04T01:13:02;10.82;;;3.20;;
61527;SDS011;47395;42.032;-8.634;2022-09-04T01:15:13;7.40;;;3.40;;
61527;SDS011;47395;42.032;-8.634;2022-09-04T01:17:36;11.80;;;3.60;;
61527;SDS011;47395;42.032;-8.634;2022-09-04T01:19:47;5.93;;;2.90;;
61527;SDS011;47395;42.032;-8.634;2022-09-04T01:24:58;7.80;;;3.25;;
61527;SDS011;47395;42.032;-8.634;2022-09-04T01:27:03;9.52;;;3.65;;
61527;SDS011;47395;42.032;-8.634;2022-09-04T01:31:48;11.27;;;3.33;;
61527;SDS011;47395;42.032;-8.634;2022-09-04T01:39:06;11.05;;;3.83;;
61527;SDS011;47395;42.032;-8.634;2022-09-04T01:41:23;11.13;;;3.78;;
61527;SDS011;47395;42.032;-8.634;2022-09-04T01:43:46;7.55;;;3.30;;
61527;SDS011;47395;42.032;-8.634;2022-09-04T01:48:45;15.57;;;3.53;;
61527;SDS011;47395;42.032;-8.634;2022-09-04T01:50:52;10.43;;;3.17;;
61527;SDS011;47395;42.032;-8.634;2022-09-04T01:53:03;14.95;;;4.15;;
61527;SDS011;47395;42.032;-8.634;2022-09-04T01:55:46;14.48;;;3.55;;
61527;SDS011;47395;42.032;-8.634;2022-09-04T01:58:33;9.63;;;3.28;;
61527;SDS011;47395;42.032;-8.634;2022-09-04T02:00:55;10.57;;;3.38;;
61527;SDS011;47395;42.032;-8.634;2022-09-04T02:04:01;16.95;;;3.10;;
61527;SDS011;47395;42.032;-8.634;2022-09-04T02:08:50;8.35;;;3.30;;
61527;SDS011;47395;42.032;-8.634;2022-09-04T02:15:36;9.98;;;3.50;;
61527;SDS011;47395;42.032;-8.634;2022-09-04T02:18:24;16.58;;;4.10;;
61527;SDS011;47395;42.032;-8.634;2022-09-04T02:20:57;9.82;;;3.20;;
61527;SDS011;47395;42.032;-8.634;2022-09-04T02:26:02;10.07;;;3.33;;
61527;SDS011;47395;42.032;-8.634;2022-09-04T02:28:46;11.18;;;3.42;;
61527;SDS011;47395;42.032;-8.634;2022-09-04T02:30:45;9.43;;;3.20;;
61527;SDS011;47395;42.032;-8.634;2022-09-04T02:33:34;11.95;;;3.80;;
61527;SDS011;47395;42.032;-8.634;2022-09-04T02:35:55;15.70;;;3.70;;
61527;SDS011;47395;42.032;-8.634;2022-09-04T02:38:50;12.48;;;3.85;;
61527;SDS011;47395;42.032;-8.634;2022-09-04T02:40:50;9.52;;;3.72;;
61527;SDS011;47395;42.032;-8.634;2022-09-04T02:45:40;10.57;;;4.10;;
61527;SDS011;47395;42.032;-8.634;2022-09-04T02:50:10;11.52;;;3.67;;
61527;SDS011;47395;42.032;-8.634;2022-09-04T02:56:29;11.43;;;3.80;;
61527;SDS011;47395;42.032;-8.634;2022-09-04T02:58:02;9.90;;;3.90;;
61527;SDS011;47395;42.032;-8.634;2022-09-04T03:00:16;11.27;;;4.13;;
61527;SDS011;47395;42.032;-8.634;2022-09-04T03:02:29;9.43;;;3.95;;
61527;SDS011;47395;42.032;-8.634;2022-09-04T03:05:13;9.75;;;4.00;;
61527;SDS011;47395;42.032;-8.634;2022-09-04T03:07:30;12.90;;;4.03;;
61527;SDS011;47395;42.032;-8.634;2022-09-04T03:09:50;14.27;;;4.28;;
61527;SDS011;47395;42.032;-8.634;2022-09-04T03:12:10;8.25;;;4.18;;
61527;SDS011;47395;42.032;-8.634;2022-09-04T03:14:41;8.70;;;4.10;;
61527;SDS011;47395;42.032;-8.634;2022-09-04T03:16:56;7.82;;;4.18;;
61527;SDS011;47395;42.032;-8.634;2022-09-04T03:19:24;12.02;;;4.35;;
61527;SDS011;47395;42.032;-8.634;2022-09-04T03:21:41;12.45;;;4.30;;
61527;SDS011;47395;42.032;-8.634;2022-09-04T03:26:38;14.98;;;4.28;;
61527;SDS011;47395;42.032;-8.634;2022-09-04T03:34:19;9.32;;;3.88;;
61527;SDS011;47395;42.032;-8.634;2022-09-04T03:36:53;14.88;;;4.30;;
61527;SDS011;47395;42.032;-8.634;2022-09-04T03:42:23;8.45;;;3.80;;
61527;SDS011;47395;42.032;-8.634;2022-09-04T03:45:11;8.85;;;4.00;;
61527;SDS011;47395;42.032;-8.634;2022-09-04T03:47:33;8.93;;;3.78;;
61527;SDS011;47395;42.032;-8.634;2022-09-04T03:52:44;6.63;;;3.80;;
61527;SDS011;47395;42.032;-8.634;2022-09-04T04:00:48;10.52;;;3.60;;
61527;SDS011;47395;42.032;-8.634;2022-09-04T04:05:21;12.35;;;4.10;;
61527;SDS011;47395;42.032;-8.634;2022-09-04T04:07:52;8.90;;;4.00;;
61527;SDS011;47395;42.032;-8.634;2022-09-04T04:10:03;8.52;;;4.20;;
61527;SDS011;47395;42.032;-8.634;2022-09-04T04:13:19;11.68;;;3.58;;
61527;SDS011;47395;42.032;-8.634;2022-09-04T04:20:47;9.80;;;4.03;;
61527;SDS011;47395;42.032;-8.634;2022-09-04T04:23:39;6.65;;;3.90;;
61527;SDS011;47395;42.032;-8.634;2022-09-04T04:26:37;8.77;;;3.92;;
61527;SDS011;47395;42.032;-8.634;2022-09-04T04:31:43;11.25;;;4.15;;
61527;SDS011;47395;42.032;-8.634;2022-09-04T04:34:20;11.75;;;4.25;;
61527;SDS011;47395;42.032;-8.634;2022-09-04T04:36:35;7.05;;;3.70;;
61527;SDS011;47395;42.032;-8.634;2022-09-04T04:39:13;15.25;;;4.00;;
61527;SDS011;47395;42.032;-8.634;2022-09-04T04:41:59;10.10;;;3.50;;
61527;SDS011;47395;42.032;-8.634;2022-09-04T04:44:14;9.43;;;3.60;;
61527;SDS011;47395;42.032;-8.634;2022-09-04T04:46:46;7.30;;;3.35;;
61527;SDS011;47395;42.032;-8.634;2022-09-04T04:49:06;18.10;;;3.70;;
61527;SDS011;47395;42.032;-8.634;2022-09-04T05:02:21;8.85;;;3.60;;
61527;SDS011;47395;42.032;-8.634;2022-09-04T05:04:36;8.57;;;3.88;;
61527;SDS011;47395;42.032;-8.634;2022-09-04T05:18:15;13.30;;;4.03;;
61527;SDS011;47395;42.032;-8.634;2022-09-04T05:19:14;13.60;;;4.45;;
61527;SDS011;47395;42.032;-8.634;2022-09-04T05:21:48;11.77;;;4.00;;
61527;SDS011;47395;42.032;-8.634;2022-09-04T05:24:07;11.30;;;4.18;;
61527;SDS011;47395;42.032;-8.634;2022-09-04T05:28:47;9.15;;;3.88;;
61527;SDS011;47395;42.032;-8.634;2022-09-04T05:33:58;9.35;;;3.97;;
61527;SDS011;47395;42.032;-8.634;2022-09-04T05:36:31;9.80;;;3.83;;
61527;SDS011;47395;42.032;-8.634;2022-09-04T05:39:01;10.63;;;4.05;;
61527;SDS011;47395;42.032;-8.634;2022-09-04T05:48:51;11.60;;;3.95;;
61527;SDS011;47395;42.032;-8.634;2022-09-04T05:54:47;10.35;;;3.60;;
61527;SDS011;47395;42.032;-8.634;2022-09-04T06:05:51;13.70;;;4.28;;
61527;SDS011;47395;42.032;-8.634;2022-09-04T06:15:15;9.47;;;3.33;;
61527;SDS011;47395;42.032;-8.634;2022-09-04T06:25:36;10.48;;;3.72;;
61527;SDS011;47395;42.032;-8.634;2022-09-04T06:27:07;12.70;;;3.78;;
61527;SDS011;47395;42.032;-8.634;2022-09-04T06:29:29;14.73;;;3.60;;
61527;SDS011;47395;42.032;-8.634;2022-09-04T06:37:17;9.50;;;4.03;;
61527;SDS011;47395;42.032;-8.634;2022-09-04T06:39:49;14.43;;;4.10;;
61527;SDS011;47395;42.032;-8.634;2022-09-04T06:47:44;7.72;;;3.47;;
61527;SDS011;47395;42.032;-8.634;2022-09-04T06:50:24;7.30;;;3.80;;
61527;SDS011;47395;42.032;-8.634;2022-09-04T06:53:01;9.90;;;3.65;;
61527;SDS011;47395;42.032;-8.634;2022-09-04T06:55:59;15.45;;;3.50;;
61527;SDS011;47395;42.032;-8.634;2022-09-04T07:00:47;7.87;;;3.70;;
61527;SDS011;47395;42.032;-8.634;2022-09-04T07:05:28;15.55;;;4.32;;
61527;SDS011;47395;42.032;-8.634;2022-09-04T07:07:54;7.20;;;3.92;;
61527;SDS011;47395;42.032;-8.634;2022-09-04T07:10:24;9.05;;;4.40;;
61527;SDS011;47395;42.032;-8.634;2022-09-04T07:12:45;10.10;;;4.07;;
61527;SDS011;47395;42.032;-8.634;2022-09-04T07:15:22;9.02;;;4.30;;
61527;SDS011;47395;42.032;-8.634;2022-09-04T07:28:47;8.20;;;4.10;;
61527;SDS011;47395;42.032;-8.634;2022-09-04T07:31:22;14.20;;;4.25;;
61527;SDS011;47395;42.032;-8.634;2022-09-04T07:33:46;11.17;;;3.40;;
61527;SDS011;47395;42.032;-8.634;2022-09-04T07:38:50;6.18;;;3.58;;
61527;SDS011;47395;42.032;-8.634;2022-09-04T07:49:39;8.45;;;3.47;;
61527;SDS011;47395;42.032;-8.634;2022-09-04T08:00:28;13.15;;;3.63;;
61527;SDS011;47395;42.032;-8.634;2022-09-04T08:05:30;15.60;;;3.97;;
61527;SDS011;47395;42.032;-8.634;2022-09-04T08:08:04;9.50;;;3.20;;
61527;SDS011;47395;42.032;-8.634;2022-09-04T08:12:31;9.43;;;3.53;;
61527;SDS011;47395;42.032;-8.634;2022-09-04T08:15:13;13.57;;;3.85;;
61527;SDS011;47395;42.032;-8.634;2022-09-04T08:17:23;9.95;;;3.70;;
61527;SDS011;47395;42.032;-8.634;2022-09-04T08:28:13;6.68;;;3.45;;
61527;SDS011;47395;42.032;-8.634;2022-09-04T08:30:18;6.32;;;3.28;;
61527;SDS011;47395;42.032;-8.634;2022-09-04T08:39:05;5.22;;;3.17;;
61527;SDS011;47395;42.032;-8.634;2022-09-04T08:50:32;7.95;;;3.60;;
61527;SDS011;47395;42.032;-8.634;2022-09-04T08:52:51;9.82;;;3.10;;
61527;SDS011;47395;42.032;-8.634;2022-09-04T09:01:16;5.50;;;2.90;;
61527;SDS011;47395;42.032;-8.634;2022-09-04T09:06:39;11.45;;;3.47;;
61527;SDS011;47395;42.032;-8.634;2022-09-04T09:11:41;8.75;;;3.00;;
61527;SDS011;47395;42.032;-8.634;2022-09-04T09:14:15;11.45;;;3.15;;
61527;SDS011;47395;42.032;-8.634;2022-09-04T09:20:19;10.25;;;2.78;;
61527;SDS011;47395;42.032;-8.634;2022-09-04T09:25:13;8.35;;;2.75;;
61527;SDS011;47395;42.032;-8.634;2022-09-04T09:30:12;9.30;;;3.03;;
61527;SDS011;47395;42.032;-8.634;2022-09-04T09:44:54;12.18;;;3.10;;
61527;SDS011;47395;42.032;-8.634;2022-09-04T09:47:35;10.70;;;3.10;;
61527;SDS011;47395;42.032;-8.634;2022-09-04T09:50:11;8.95;;;2.92;;
61527;SDS011;47395;42.032;-8.634;2022-09-04T10:06:44;8.63;;;3.05;;
61527;SDS011;47395;42.032;-8.634;2022-09-04T10:09:16;6.15;;;2.83;;
61527;SDS011;47395;42.032;-8.634;2022-09-04T10:17:49;8.25;;;2.85;;
61527;SDS011;47395;42.032;-8.634;2022-09-04T10:23:23;13.57;;;2.90;;
61527;SDS011;47395;42.032;-8.634;2022-09-04T10:26:07;5.65;;;3.10;;
61527;SDS011;47395;42.032;-8.634;2022-09-04T10:36:46;11.85;;;3.03;;
61527;SDS011;47395;42.032;-8.634;2022-09-04T10:44:16;7.63;;;3.05;;
61527;SDS011;47395;42.032;-8.634;2022-09-04T10:55:15;5.78;;;2.47;;
61527;SDS011;47395;42.032;-8.634;2022-09-04T10:58:02;8.57;;;2.22;;
61527;SDS011;47395;42.032;-8.634;2022-09-04T11:00:06;12.75;;;2.78;;
61527;SDS011;47395;42.032;-8.634;2022-09-04T11:02:24;15.90;;;2.55;;
61527;SDS011;47395;42.032;-8.634;2022-09-04T11:16:06;6.65;;;1.98;;
61527;SDS011;47395;42.032;-8.634;2022-09-04T11:21:09;10.70;;;2.35;;
61527;SDS011;47395;42.032;-8.634;2022-09-04T11:24:34;11.98;;;2.17;;
61527;SDS011;47395;42.032;-8.634;2022-09-04T11:32:06;9.00;;;2.50;;
61527;SDS011;47395;42.032;-8.634;2022-09-04T11:36:53;6.97;;;2.05;;
61527;SDS011;47395;42.032;-8.634;2022-09-04T11:56:03;6.13;;;1.88;;
61527;SDS011;47395;42.032;-8.634;2022-09-04T12:01:27;10.43;;;2.35;;
61527;SDS011;47395;42.032;-8.634;2022-09-04T12:09:24;5.72;;;2.10;;
61527;SDS011;47395;42.032;-8.634;2022-09-04T12:15:16;7.95;;;2.20;;
61527;SDS011;47395;42.032;-8.634;2022-09-04T12:36:49;10.70;;;2.42;;
61527;SDS011;47395;42.032;-8.634;2022-09-04T12:39:44;7.90;;;2.13;;
61527;SDS011;47395;42.032;-8.634;2022-09-04T12:42:06;7.20;;;1.60;;
61527;SDS011;47395;42.032;-8.634;2022-09-04T12:44:50;3.67;;;1.70;;
61527;SDS011;47395;42.032;-8.634;2022-09-04T12:46:59;11.40;;;2.03;;
61527;SDS011;47395;42.032;-8.634;2022-09-04T12:49:31;5.45;;;2.10;;
61527;SDS011;47395;42.032;-8.634;2022-09-04T12:51:47;7.10;;;1.88;;
61527;SDS011;47395;42.032;-8.634;2022-09-04T12:54:19;9.90;;;2.22;;
61527;SDS011;47395;42.032;-8.634;2022-09-04T12:59:53;5.95;;;1.80;;
61527;SDS011;47395;42.032;-8.634;2022-09-04T13:08:03;7.85;;;2.08;;
61527;SDS011;47395;42.032;-8.634;2022-09-04T13:10:26;9.40;;;2.03;;
61527;SDS011;47395;42.032;-8.634;2022-09-04T13:17:56;7.35;;;2.08;;
61527;SDS011;47395;42.032;-8.634;2022-09-04T13:20:17;5.15;;;1.98;;
61527;SDS011;47395;42.032;-8.634;2022-09-04T13:25:10;3.50;;;1.70;;
61527;SDS011;47395;42.032;-8.634;2022-09-04T13:30:16;8.90;;;2.33;;
61527;SDS011;47395;42.032;-8.634;2022-09-04T13:37:33;6.43;;;2.40;;
61527;SDS011;47395;42.032;-8.634;2022-09-04T13:39:49;3.75;;;1.83;;
61527;SDS011;47395;42.032;-8.634;2022-09-04T13:42:43;6.10;;;1.70;;
61527;SDS011;47395;42.032;-8.634;2022-09-04T13:45:49;6.70;;;2.42;;
61527;SDS011;47395;42.032;-8.634;2022-09-04T13:47:23;16.08;;;3.38;;
61527;SDS011;47395;42.032;-8.634;2022-09-04T13:49:27;5.82;;;2.40;;
61527;SDS011;47395;42.032;-8.634;2022-09-04T13:51:39;7.70;;;2.28;;
61527;SDS011;47395;42.032;-8.634;2022-09-04T13:53:49;10.40;;;2.80;;
61527;SDS011;47395;42.032;-8.634;2022-09-04T13:56:13;10.00;;;2.38;;
61527;SDS011;47395;42.032;-8.634;2022-09-04T13:58:19;6.97;;;2.55;;
61527;SDS011;47395;42.032;-8.634;2022-09-04T14:00:27;18.45;;;2.85;;
61527;SDS011;47395;42.032;-8.634;2022-09-04T14:02:32;13.18;;;2.90;;
61527;SDS011;47395;42.032;-8.634;2022-09-04T14:04:37;16.52;;;2.67;;
61527;SDS011;47395;42.032;-8.634;2022-09-04T14:06:43;16.85;;;3.33;;
61527;SDS011;47395;42.032;-8.634;2022-09-04T14:08:44;13.15;;;2.58;;
61527;SDS011;47395;42.032;-8.634;2022-09-04T14:13:32;8.27;;;2.60;;
61527;SDS011;47395;42.032;-8.634;2022-09-04T14:18:38;9.40;;;2.70;;
61527;SDS011;47395;42.032;-8.634;2022-09-04T14:21:01;12.10;;;3.15;;
61527;SDS011;47395;42.032;-8.634;2022-09-04T14:23:58;7.00;;;2.88;;
61527;SDS011;47395;42.032;-8.634;2022-09-04T14:26:23;7.30;;;2.60;;
61527;SDS011;47395;42.032;-8.634;2022-09-04T14:28:22;8.18;;;2.92;;
61527;SDS011;47395;42.032;-8.634;2022-09-04T14:30:32;10.57;;;2.50;;
61527;SDS011;47395;42.032;-8.634;2022-09-04T14:32:55;8.38;;;2.50;;
61527;SDS011;47395;42.032;-8.634;2022-09-04T14:35:32;14.10;;;2.77;;
61527;SDS011;47395;42.032;-8.634;2022-09-04T14:38:01;7.55;;;2.60;;
61527;SDS011;47395;42.032;-8.634;2022-09-04T14:40:28;6.68;;;2.45;;
61527;SDS011;47395;42.032;-8.634;2022-09-04T14:42:40;12.93;;;2.97;;
61527;SDS011;47395;42.032;-8.634;2022-09-04T14:44:50;5.93;;;2.38;;
61527;SDS011;47395;42.032;-8.634;2022-09-04T14:48:03;10.65;;;2.95;;
61527;SDS011;47395;42.032;-8.634;2022-09-04T14:49:54;8.60;;;2.67;;
61527;SDS011;47395;42.032;-8.634;2022-09-04T14:52:08;9.35;;;2.88;;
61527;SDS011;47395;42.032;-8.634;2022-09-04T14:54:32;12.05;;;2.83;;
61527;SDS011;47395;42.032;-8.634;2022-09-04T14:56:47;8.85;;;2.72;;
61527;SDS011;47395;42.032;-8.634;2022-09-04T14:58:54;10.60;;;2.63;;
61527;SDS011;47395;42.032;-8.634;2022-09-04T15:01:06;11.70;;;2.65;;
61527;SDS011;47395;42.032;-8.634;2022-09-04T15:03:19;14.77;;;2.90;;
61527;SDS011;47395;42.032;-8.634;2022-09-04T15:05:29;20.50;;;3.05;;
61527;SDS011;47395;42.032;-8.634;2022-09-04T15:07:56;14.60;;;3.37;;
61527;SDS011;47395;42.032;-8.634;2022-09-04T15:10:04;9.55;;;2.63;;
61527;SDS011;47395;42.032;-8.634;2022-09-04T15:12:31;13.48;;;3.10;;
61527;SDS011;47395;42.032;-8.634;2022-09-04T15:14:35;9.00;;;3.07;;
61527;SDS011;47395;42.032;-8.634;2022-09-04T15:16:42;9.15;;;2.55;;
61527;SDS011;47395;42.032;-8.634;2022-09-04T15:21:27;10.23;;;2.85;;
61527;SDS011;47395;42.032;-8.634;2022-09-04T15:26:17;11.18;;;3.13;;
61527;SDS011;47395;42.032;-8.634;2022-09-04T15:28:49;10.50;;;2.78;;
61527;SDS011;47395;42.032;-8.634;2022-09-04T15:31:02;11.55;;;2.88;;
61527;SDS011;47395;42.032;-8.634;2022-09-04T15:33:18;13.85;;;3.05;;
61527;SDS011;47395;42.032;-8.634;2022-09-04T15:35:24;12.23;;;3.17;;
61527;SDS011;47395;42.032;-8.634;2022-09-04T15:37:27;10.95;;;2.83;;
61527;SDS011;47395;42.032;-8.634;2022-09-04T15:39:30;14.48;;;3.15;;
61527;SDS011;47395;42.032;-8.634;2022-09-04T15:41:47;14.88;;;3.22;;
61527;SDS011;47395;42.032;-8.634;2022-09-04T15:43:53;9.00;;;2.72;;
61527;SDS011;47395;42.032;-8.634;2022-09-04T15:46:08;8.98;;;2.88;;
61527;SDS011;47395;42.032;-8.634;2022-09-04T15:48:25;10.40;;;2.60;;
61527;SDS011;47395;42.032;-8.634;2022-09-04T15:50:59;13.52;;;2.72;;
61527;SDS011;47395;42.032;-8.634;2022-09-04T15:53:24;16.90;;;2.88;;
61527;SDS011;47395;42.032;-8.634;2022-09-04T15:55:28;15.25;;;3.08;;
61527;SDS011;47395;42.032;-8.634;2022-09-04T16:00:09;11.68;;;3.10;;
61527;SDS011;47395;42.032;-8.634;2022-09-04T16:04:33;10.10;;;2.70;;
61527;SDS011;47395;42.032;-8.634;2022-09-04T16:09:36;13.60;;;2.85;;
61527;SDS011;47395;42.032;-8.634;2022-09-04T16:11:52;12.60;;;2.90;;
61527;SDS011;47395;42.032;-8.634;2022-09-04T16:14:02;12.93;;;3.15;;
61527;SDS011;47395;42.032;-8.634;2022-09-04T16:16:09;16.23;;;3.45;;
61527;SDS011;47395;42.032;-8.634;2022-09-04T16:18:14;14.30;;;2.97;;
61527;SDS011;47395;42.032;-8.634;2022-09-04T16:22:48;18.48;;;3.78;;
61527;SDS011;47395;42.032;-8.634;2022-09-04T16:25:09;7.47;;;2.70;;
61527;SDS011;47395;42.032;-8.634;2022-09-04T16:27:24;10.65;;;2.70;;
61527;SDS011;47395;42.032;-8.634;2022-09-04T16:29:35;17.25;;;3.45;;
61527;SDS011;47395;42.032;-8.634;2022-09-04T16:31:49;14.30;;;2.92;;
61527;SDS011;47395;42.032;-8.634;2022-09-04T16:33:52;11.65;;;2.95;;
61527;SDS011;47395;42.032;-8.634;2022-09-04T16:36:40;12.13;;;2.90;;
61527;SDS011;47395;42.032;-8.634;2022-09-04T16:38:52;13.82;;;3.00;;
61527;SDS011;47395;42.032;-8.634;2022-09-04T16:41:41;9.82;;;2.70;;
61527;SDS011;47395;42.032;-8.634;2022-09-04T16:43:38;12.73;;;3.22;;
61527;SDS011;47395;42.032;-8.634;2022-09-04T16:45:42;10.00;;;2.88;;
61527;SDS011;47395;42.032;-8.634;2022-09-04T16:47:54;16.80;;;3.28;;
61527;SDS011;47395;42.032;-8.634;2022-09-04T16:50:12;14.32;;;2.92;;
61527;SDS011;47395;42.032;-8.634;2022-09-04T16:52:35;11.52;;;2.70;;
61527;SDS011;47395;42.032;-8.634;2022-09-04T16:54:44;13.15;;;2.90;;
61527;SDS011;47395;42.032;-8.634;2022-09-04T16:57:11;10.93;;;3.08;;
61527;SDS011;47395;42.032;-8.634;2022-09-04T17:01:30;12.55;;;3.05;;
61527;SDS011;47395;42.032;-8.634;2022-09-04T17:04:03;11.35;;;2.88;;
61527;SDS011;47395;42.032;-8.634;2022-09-04T17:06:39;10.95;;;3.10;;
61527;SDS011;47395;42.032;-8.634;2022-09-04T17:09:06;7.95;;;2.78;;
61527;SDS011;47395;42.032;-8.634;2022-09-04T17:11:18;15.50;;;3.40;;
61527;SDS011;47395;42.032;-8.634;2022-09-04T17:13:36;15.32;;;3.20;;
61527;SDS011;47395;42.032;-8.634;2022-09-04T17:15:47;11.73;;;2.53;;
61527;SDS011;47395;42.032;-8.634;2022-09-04T17:17:54;9.23;;;2.85;;
61527;SDS011;47395;42.032;-8.634;2022-09-04T17:20:07;11.32;;;3.05;;
61527;SDS011;47395;42.032;-8.634;2022-09-04T17:22:21;14.70;;;2.92;;
61527;SDS011;47395;42.032;-8.634;2022-09-04T17:24:39;10.90;;;3.10;;
61527;SDS011;47395;42.032;-8.634;2022-09-04T17:26:51;10.65;;;3.20;;
61527;SDS011;47395;42.032;-8.634;2022-09-04T17:29:14;8.40;;;2.55;;
61527;SDS011;47395;42.032;-8.634;2022-09-04T17:31:32;13.77;;;3.80;;
61527;SDS011;47395;42.032;-8.634;2022-09-04T17:33:58;10.18;;;3.20;;
61527;SDS011;47395;42.032;-8.634;2022-09-04T17:36:17;12.93;;;3.22;;
61527;SDS011;47395;42.032;-8.634;2022-09-04T17:39:03;16.58;;;3.40;;
61527;SDS011;47395;42.032;-8.634;2022-09-04T17:41:30;8.57;;;3.13;;
61527;SDS011;47395;42.032;-8.634;2022-09-04T17:46:38;8.63;;;3.03;;
61527;SDS011;47395;42.032;-8.634;2022-09-04T17:48:45;9.60;;;2.60;;
61527;SDS011;47395;42.032;-8.634;2022-09-04T17:50:47;12.35;;;3.05;;
61527;SDS011;47395;42.032;-8.634;2022-09-04T17:53:00;13.30;;;2.95;;
61527;SDS011;47395;42.032;-8.634;2022-09-04T17:55:07;15.77;;;3.45;;
61527;SDS011;47395;42.032;-8.634;2022-09-04T17:57:20;12.65;;;2.85;;
61527;SDS011;47395;42.032;-8.634;2022-09-04T17:59:33;15.93;;;3.50;;
61527;SDS011;47395;42.032;-8.634;2022-09-04T18:06:21;14.30;;;3.90;;
61527;SDS011;47395;42.032;-8.634;2022-09-04T18:08:27;13.38;;;3.38;;
61527;SDS011;47395;42.032;-8.634;2022-09-04T18:12:06;9.57;;;2.80;;
61527;SDS011;47395;42.032;-8.634;2022-09-04T18:13:13;22.92;;;3.72;;
61527;SDS011;47395;42.032;-8.634;2022-09-04T18:15:27;14.85;;;3.28;;
61527;SDS011;47395;42.032;-8.634;2022-09-04T18:20:27;7.90;;;2.95;;
61527;SDS011;47395;42.032;-8.634;2022-09-04T18:25:23;15.10;;;3.33;;
61527;SDS011;47395;42.032;-8.634;2022-09-04T18:27:35;15.77;;;4.10;;
61527;SDS011;47395;42.032;-8.634;2022-09-04T18:32:03;9.57;;;2.70;;
61527;SDS011;47395;42.032;-8.634;2022-09-04T18:34:20;8.88;;;3.45;;
61527;SDS011;47395;42.032;-8.634;2022-09-04T18:39:35;12.82;;;3.40;;
61527;SDS011;47395;42.032;-8.634;2022-09-04T18:44:16;13.18;;;3.28;;
61527;SDS011;47395;42.032;-8.634;2022-09-04T18:46:22;13.35;;;3.47;;
61527;SDS011;47395;42.032;-8.634;2022-09-04T18:48:25;14.82;;;3.10;;
61527;SDS011;47395;42.032;-8.634;2022-09-04T18:50:35;10.38;;;3.13;;
61527;SDS011;47395;42.032;-8.634;2022-09-04T18:52:53;11.73;;;3.08;;
61527;SDS011;47395;42.032;-8.634;2022-09-04T18:55:18;10.57;;;3.15;;
61527;SDS011;47395;42.032;-8.634;2022-09-04T18:57:35;12.82;;;3.13;;
61527;SDS011;47395;42.032;-8.634;2022-09-04T18:59:46;15.80;;;3.80;;
61527;SDS011;47395;42.032;-8.634;2022-09-04T19:01:51;12.90;;;3.22;;
61527;SDS011;47395;42.032;-8.634;2022-09-04T19:06:36;16.67;;;3.42;;
61527;SDS011;47395;42.032;-8.634;2022-09-04T19:08:48;20.70;;;3.72;;
61527;SDS011;47395;42.032;-8.634;2022-09-04T19:10:53;10.90;;;3.00;;
61527;SDS011;47395;42.032;-8.634;2022-09-04T19:18:23;15.00;;;3.55;;
61527;SDS011;47395;42.032;-8.634;2022-09-04T19:20:38;20.10;;;3.58;;
61527;SDS011;47395;42.032;-8.634;2022-09-04T19:22:49;10.68;;;3.20;;
61527;SDS011;47395;42.032;-8.634;2022-09-04T19:25:03;14.43;;;3.17;;
61527;SDS011;47395;42.032;-8.634;2022-09-04T19:27:51;10.18;;;2.92;;
61527;SDS011;47395;42.032;-8.634;2022-09-04T19:29:42;13.43;;;2.90;;
61527;SDS011;47395;42.032;-8.634;2022-09-04T19:31:53;14.20;;;3.00;;
61527;SDS011;47395;42.032;-8.634;2022-09-04T19:36:44;14.63;;;3.35;;
61527;SDS011;47395;42.032;-8.634;2022-09-04T19:39:16;14.77;;;3.08;;
61527;SDS011;47395;42.032;-8.634;2022-09-04T19:42:19;9.63;;;2.92;;
61527;SDS011;47395;42.032;-8.634;2022-09-04T19:44:33;18.42;;;3.42;;
61527;SDS011;47395;42.032;-8.634;2022-09-04T19:46:45;12.25;;;3.25;;
61527;SDS011;47395;42.032;-8.634;2022-09-04T19:50:18;11.93;;;3.40;;
61527;SDS011;47395;42.032;-8.634;2022-09-04T19:51:37;9.65;;;3.10;;
61527;SDS011;47395;42.032;-8.634;2022-09-04T19:53:45;21.77;;;3.53;;
61527;SDS011;47395;42.032;-8.634;2022-09-04T19:56:09;13.45;;;3.20;;
61527;SDS011;47395;42.032;-8.634;2022-09-04T19:58:44;14.85;;;3.60;;
61527;SDS011;47395;42.032;-8.634;2022-09-04T20:00:56;10.45;;;2.95;;
61527;SDS011;47395;42.032;-8.634;2022-09-04T20:03:00;13.63;;;3.65;;
61527;SDS011;47395;42.032;-8.634;2022-09-04T20:05:20;12.98;;;3.80;;
61527;SDS011;47395;42.032;-8.634;2022-09-04T20:07:48;10.93;;;3.13;;
61527;SDS011;47395;42.032;-8.634;2022-09-04T20:09:55;17.23;;;3.10;;
61527;SDS011;47395;42.032;-8.634;2022-09-04T20:11:59;8.27;;;2.90;;
61527;SDS011;47395;42.032;-8.634;2022-09-04T20:14:52;9.13;;;3.00;;
61527;SDS011;47395;42.032;-8.634;2022-09-04T20:16:41;12.15;;;3.35;;
61527;SDS011;47395;42.032;-8.634;2022-09-04T20:19:39;12.70;;;3.35;;
61527;SDS011;47395;42.032;-8.634;2022-09-04T20:21:25;14.73;;;2.80;;
61527;SDS011;47395;42.032;-8.634;2022-09-04T20:23:53;11.48;;;3.53;;
61527;SDS011;47395;42.032;-8.634;2022-09-04T20:26:15;12.65;;;3.13;;
61527;SDS011;47395;42.032;-8.634;2022-09-04T20:28:39;15.80;;;3.58;;
61527;SDS011;47395;42.032;-8.634;2022-09-04T20:30:43;19.02;;;3.30;;
61527;SDS011;47395;42.032;-8.634;2022-09-04T20:33:01;13.90;;;2.75;;
61527;SDS011;47395;42.032;-8.634;2022-09-04T20:35:08;15.63;;;3.80;;
61527;SDS011;47395;42.032;-8.634;2022-09-04T20:39:47;17.88;;;3.28;;
61527;SDS011;47395;42.032;-8.634;2022-09-04T20:42:03;10.40;;;3.40;;
61527;SDS011;47395;42.032;-8.634;2022-09-04T20:44:23;13.32;;;3.33;;
61527;SDS011;47395;42.032;-8.634;2022-09-04T20:46:37;13.30;;;3.70;;
61527;SDS011;47395;42.032;-8.634;2022-09-04T20:48:51;10.02;;;3.05;;
61527;SDS011;47395;42.032;-8.634;2022-09-04T20:51:03;17.13;;;3.70;;
61527;SDS011;47395;42.032;-8.634;2022-09-04T20:58:59;17.77;;;3.78;;
61527;SDS011;47395;42.032;-8.634;2022-09-04T21:01:06;13.48;;;3.33;;
61527;SDS011;47395;42.032;-8.634;2022-09-04T21:03:17;19.92;;;4.13;;
61527;SDS011;47395;42.032;-8.634;2022-09-04T21:05:39;9.68;;;3.42;;
61527;SDS011;47395;42.032;-8.634;2022-09-04T21:08:27;15.77;;;3.38;;
61527;SDS011;47395;42.032;-8.634;2022-09-04T21:10:43;18.65;;;3.60;;
61527;SDS011;47395;42.032;-8.634;2022-09-04T21:12:52;11.45;;;3.83;;
61527;SDS011;47395;42.032;-8.634;2022-09-04T21:15:19;15.00;;;3.67;;
61527;SDS011;47395;42.032;-8.634;2022-09-04T21:22:00;11.77;;;3.65;;
61527;SDS011;47395;42.032;-8.634;2022-09-04T21:23:31;12.07;;;3.25;;
61527;SDS011;47395;42.032;-8.634;2022-09-04T21:30:37;13.10;;;3.85;;
61527;SDS011;47395;42.032;-8.634;2022-09-04T21:35:17;13.35;;;3.97;;